Time;durP1;ratioP1;P1;durP2;ratioP2;P2;SDS_P1;SDS_P2;PMS_P1;PMS_P2;Temp;Humidity;BMP_temperature;BMP_pressure;BME280_temperature;BME280_humidity;BME280_pressure;Samples;Min_cycle;Max_cycle;Signal;HPM_P1;HPM_P2
2021/12/17 00:01:37;;;;;;;2.97;2.47;;;;;;;9.92;82.63;103362.59;5110604;28;20038;-80
2021/12/17 00:04:26;;;;;;;5.20;3.55;;;;;;;9.90;82.90;103370.44;5122007;28;20057;-80
2021/12/17 00:06:57;;;;;;;3.90;3.55;;;;;;;9.88;82.82;103366.91;5126150;28;20039;-79
2021/12/17 00:09:28;;;;;;;2.85;2.65;;;;;;;9.86;82.92;103365.97;5118545;28;20043;-79
2021/12/17 00:12:23;;;;;;;2.00;1.90;;;;;;;9.90;82.57;103374.78;5109482;28;20127;-79
2021/12/17 00:15:09;;;;;;;3.47;3.25;;;;;;;9.90;82.53;103369.53;5156381;28;20035;-79
2021/12/17 00:17:55;;;;;;;3.67;3.35;;;;;;;9.90;82.68;103369.53;5141604;28;20511;-79
2021/12/17 00:43:58;;;;;;;3.15;2.95;;;;;;;9.88;82.62;103353.78;5130931;28;20045;-79
2021/12/17 00:48:24;;;;;;;16.55;4.20;;;;;;;9.83;82.62;103349.31;5120533;28;20059;-78
2021/12/17 00:49:31;;;;;;;2.85;2.65;;;;;;;9.86;82.91;103341.50;5140044;28;20046;-78
2021/12/17 00:52:12;;;;;;;3.22;2.85;;;;;;;9.88;82.25;103338.06;5146901;28;20023;-78
2021/12/17 00:54:46;;;;;;;3.97;3.40;;;;;;;9.88;82.42;103345.03;5147249;28;20039;-78
2021/12/17 00:57:23;;;;;;;3.33;2.88;;;;;;;9.86;82.65;103336.28;5123975;28;20501;-79
2021/12/17 00:59:56;;;;;;;4.30;3.38;;;;;;;9.83;82.63;103339.72;5148877;28;20473;-79
2021/12/17 01:02:38;;;;;;;2.70;2.50;;;;;;;9.83;83.14;103336.19;5123710;28;20122;-78
2021/12/17 01:09:16;;;;;;;3.03;2.40;;;;;;;9.86;82.64;103331.03;5078357;29;20059;-79
2021/12/17 01:11:54;;;;;;;2.35;2.22;;;;;;;9.92;82.33;103325.88;5087106;29;20094;-78
2021/12/17 01:14:28;;;;;;;5.43;3.63;;;;;;;9.89;82.26;103328.44;5137492;28;20042;-79
2021/12/17 01:17:10;;;;;;;3.70;2.55;;;;;;;9.89;82.43;103321.47;5123712;28;20903;-79
2021/12/17 01:38:17;;;;;;;3.42;2.53;;;;;;;9.87;82.38;103311.81;5160941;28;20189;-79
2021/12/17 01:42:59;;;;;;;3.30;3.00;;;;;;;9.84;82.58;103310.00;5138640;28;20034;-78
2021/12/17 01:45:42;;;;;;;4.95;3.10;;;;;;;9.85;82.20;103303.91;5119994;28;20046;-78
2021/12/17 01:48:17;;;;;;;4.05;2.83;;;;;;;9.89;82.63;103310.06;5138940;28;20428;-79
2021/12/17 01:56:57;;;;;;;3.28;3.08;;;;;;;9.84;82.51;103310.00;5141322;28;20113;-79
2021/12/17 02:00:05;;;;;;;;;;;;;;;9.85;82.59;103319.63;5138115;28;20204;-78
2021/12/17 02:02:57;;;;;;;6.90;4.80;;;;;;;9.83;82.94;103323.09;5153033;28;19996;-78
2021/12/17 02:05:28;;;;;;;3.50;3.20;;;;;;;9.83;82.69;103320.47;5135882;28;20031;-78
2021/12/17 02:08:25;;;;;;;3.70;3.35;;;;;;;9.83;82.96;103324.00;5109707;28;20076;-78
2021/12/17 02:19:48;;;;;;;3.40;3.10;;;;;;;9.88;82.46;103334.53;5150044;28;20121;-78
2021/12/17 02:31:03;;;;;;;3.63;3.03;;;;;;;9.87;82.45;103343.28;5153584;28;20676;-78
2021/12/17 02:33:39;;;;;;;2.05;1.95;;;;;;;9.85;82.49;103334.50;5120502;28;20058;-78
2021/12/17 02:36:09;;;;;;;;;;;;;;;9.88;82.47;103334.53;5121711;28;20041;-79
2021/12/17 02:38:40;;;;;;;1.77;1.67;;;;;;;9.81;82.79;103330.03;5154149;28;19918;-78
2021/12/17 02:46:52;;;;;;;2.25;1.88;;;;;;;9.84;82.76;103330.97;5151165;28;20110;-79
2021/12/17 02:49:33;;;;;;;2.58;2.42;;;;;;;9.84;83.00;103332.72;5139561;28;20162;-79
2021/12/17 02:52:14;;;;;;;6.80;3.35;;;;;;;9.82;82.76;103332.72;5123145;28;20457;-79
2021/12/17 02:54:48;;;;;;;3.83;3.38;;;;;;;9.87;82.59;103333.66;5122921;28;20042;-78
2021/12/17 02:57:27;;;;;;;3.08;2.88;;;;;;;9.87;82.72;103338.03;5140287;28;20570;-78
2021/12/17 03:00:11;;;;;;;3.90;3.38;;;;;;;9.85;82.37;103335.38;5136048;28;20381;-78
2021/12/17 03:02:54;;;;;;;1.92;1.83;;;;;;;9.89;82.36;103337.22;5123845;28;20044;-79
2021/12/17 03:05:33;;;;;;;3.17;2.92;;;;;;;9.81;82.59;103332.66;5131108;28;20560;-78
2021/12/17 03:08:19;;;;;;;2.72;2.53;;;;;;;9.89;82.55;103326.72;5155134;28;20039;-78
2021/12/17 03:11:16;;;;;;;3.22;2.92;;;;;;;9.91;82.79;103334.59;5120496;28;20045;-79
2021/12/17 03:13:58;;;;;;;2.28;2.15;;;;;;;9.91;82.48;103337.22;5155582;28;20053;-78
2021/12/17 03:17:01;;;;;;;9.23;4.40;;;;;;;9.88;82.52;103318.81;5156996;28;20031;-79
2021/12/17 03:25:26;;;;;;;4.65;4.22;;;;;;;10.00;81.79;103324.28;5117137;28;20057;-78
2021/12/17 03:27:59;;;;;;;7.68;4.60;;;;;;;9.88;82.38;103329.28;5107267;28;20508;-78
2021/12/17 03:30:50;;;;;;;3.97;3.67;;;;;;;9.88;82.09;103329.28;5116466;28;20054;-78
2021/12/17 03:33:21;;;;;;;5.80;3.83;;;;;;;9.84;82.53;103328.34;5125537;28;20027;-78
2021/12/17 03:35:58;;;;;;;2.63;2.42;;;;;;;9.96;82.72;103327.69;5103591;28;20066;-78
2021/12/17 03:38:29;;;;;;;3.00;2.50;;;;;;;9.97;82.34;103316.34;5125978;28;20089;-78
2021/12/17 03:43:51;;;;;;;4.43;2.95;;;;;;;9.87;82.13;103328.41;5154726;28;20035;-78
2021/12/17 03:46:27;;;;;;;4.13;3.83;;;;;;;9.86;82.43;103325.78;5125109;28;20070;-78
2021/12/17 03:49:04;;;;;;;3.30;3.10;;;;;;;9.83;82.71;103320.47;5121815;28;20041;-78
2021/12/17 03:52:16;;;;;;;2.92;2.72;;;;;;;9.88;82.33;103329.28;5141235;28;20134;-79
2021/12/17 03:54:58;;;;;;;4.53;3.20;;;;;;;9.86;82.58;103328.41;5141085;28;20129;-79
2021/12/17 03:57:39;;;;;;;8.95;4.63;;;;;;;9.82;82.74;103327.47;5126453;28;20034;-79
2021/12/17 04:00:22;;;;;;;3.67;3.38;;;;;;;9.81;82.00;103328.31;5095498;28;20077;-78
2021/12/17 04:02:55;;;;;;;6.32;5.03;;;;;;;9.86;82.28;103325.78;5113891;28;20584;-78
2021/12/17 04:05:26;;;;;;;1.95;1.85;;;;;;;9.78;82.96;103325.63;5141362;28;20782;-79
2021/12/17 04:07:59;;;;;;;5.63;4.20;;;;;;;9.62;83.11;103329.72;5144097;28;20130;-78
2021/12/17 04:10:45;;;;;;;4.72;3.63;;;;;;;9.79;82.99;103323.91;5120504;28;20125;-78
2021/12/17 04:16:00;;;;;;;5.13;3.03;;;;;;;9.68;83.01;103307.97;5148053;28;20752;-78
2021/12/17 04:18:41;;;;;;;4.10;3.78;;;;;;;9.74;82.54;103319.44;5123995;28;20046;-80
2021/12/17 04:21:15;;;;;;;2.78;2.67;;;;;;;9.81;82.87;103328.31;5120540;28;20512;-79
2021/12/17 04:24:09;;;;;;;3.55;3.25;;;;;;;9.74;82.94;103327.31;5140739;28;20035;-80
2021/12/17 04:26:55;;;;;;;;;;;;;;;;;;;;;
2021/12/17 04:29:27;;;;;;;2.80;2.60;;;;;;;9.75;82.67;103329.09;5152440;28;20057;-79
2021/12/17 04:32:01;;;;;;;4.07;3.25;;;;;;;9.83;82.08;103328.34;5142065;28;20042;-79
2021/12/17 04:34:45;;;;;;;3.80;3.15;;;;;;;9.73;82.74;103325.53;5141409;28;20697;-79
2021/12/17 04:37:16;;;;;;;6.25;4.95;;;;;;;9.74;82.36;103327.31;5139348;28;20027;-78
2021/12/17 04:39:50;;;;;;;4.78;4.43;;;;;;;9.73;82.58;103325.53;5141868;28;20058;-78
2021/12/17 04:42:32;;;;;;;3.85;3.63;;;;;;;9.70;82.71;103325.50;5131588;23;20044;-85
2021/12/17 04:45:03;;;;;;;3.40;2.72;;;;;;;9.75;82.32;103322.97;5125097;28;20043;-85
2021/12/17 04:59:11;;;;;;;3.45;3.15;;;;;;;9.65;82.62;103321.03;5090661;28;20113;-85
2021/12/17 05:01:42;;;;;;;3.58;3.30;;;;;;;9.70;82.41;103325.50;5103698;29;20481;-85
2021/12/17 05:04:13;;;;;;;4.47;3.45;;;;;;;9.64;83.02;103320.13;5122131;28;20066;-85
2021/12/17 05:06:43;;;;;;;4.88;4.22;;;;;;;9.68;82.66;103323.69;5121898;29;20059;-85
2021/12/17 05:09:28;;;;;;;3.60;3.22;;;;;;;9.67;82.82;103327.19;5103020;29;20047;-85
2021/12/17 05:23:03;;;;;;;;;;;;;;;9.68;82.97;103335.06;5117932;28;20070;-83
2021/12/17 05:25:34;;;;;;;3.90;3.60;;;;;;;9.67;82.71;103329.81;5108635;28;20447;-85
2021/12/17 05:28:05;;;;;;;4.50;4.10;;;;;;;9.61;82.52;103327.94;5126220;28;20035;-85
2021/12/17 05:30:36;;;;;;;3.47;3.22;;;;;;;9.64;82.61;103329.75;5121263;28;20409;-85
2021/12/17 05:33:07;;;;;;;3.83;3.05;;;;;;;9.59;82.76;103329.66;5105652;29;20467;-84
2021/12/17 05:35:37;;;;;;;3.28;2.83;;;;;;;9.51;83.29;103329.50;5121218;28;20032;-84
2021/12/17 05:38:09;;;;;;;5.00;3.70;;;;;;;9.60;82.66;103328.81;5122561;29;20035;-84
2021/12/17 05:40:41;;;;;;;9.18;4.82;;;;;;;9.60;82.44;103323.56;5122099;28;20047;-85
2021/12/17 05:43:13;;;;;;;4.43;4.07;;;;;;;9.62;82.85;103327.09;5105940;29;20031;-85
2021/12/17 05:48:29;;;;;;;6.00;5.03;;;;;;;9.57;82.65;103333.97;5117704;29;20682;-84
2021/12/17 05:51:02;;;;;;;4.70;4.10;;;;;;;9.43;83.71;103331.97;5120254;28;20118;-83
2021/12/17 05:53:33;;;;;;;5.75;4.90;;;;;;;9.51;83.50;103328.63;5089156;29;20253;-84
2021/12/17 05:56:04;;;;;;;4.60;4.18;;;;;;;9.53;83.21;103324.31;5088359;29;20040;-84
2021/12/17 05:58:35;;;;;;;5.95;4.15;;;;;;;9.36;83.65;103326.56;5101353;29;20031;-83
2021/12/17 06:01:05;;;;;;;4.50;4.10;;;;;;;9.48;83.27;103323.31;5104538;28;20065;-83
2021/12/17 06:03:36;;;;;;;8.40;5.10;;;;;;;9.53;82.98;103319.06;5120334;29;20180;-83
2021/12/17 06:06:06;;;;;;;4.72;3.33;;;;;;;9.57;83.02;103323.50;5104457;28;20031;-83
2021/12/17 06:08:37;;;;;;;5.50;3.42;;;;;;;9.60;83.08;103313.06;5101295;29;20069;-83
2021/12/17 06:11:07;;;;;;;2.97;2.78;;;;;;;9.55;82.89;103317.34;5134667;28;20043;-84
2021/12/17 06:13:38;;;;;;;4.07;3.72;;;;;;;9.53;83.75;103321.69;5120325;28;20101;-84
2021/12/17 06:16:08;;;;;;;5.20;4.70;;;;;;;9.52;83.55;103325.16;5109975;28;20107;-83
2021/12/17 06:18:39;;;;;;;3.25;3.00;;;;;;;9.42;83.61;103327.59;5135082;28;20027;-83
2021/12/17 06:21:10;;;;;;;2.90;2.70;;;;;;;9.52;82.94;103330.41;5102859;29;20590;-83
2021/12/17 06:23:41;;;;;;;3.50;3.10;;;;;;;9.28;84.20;103332.56;5119757;29;20103;-84
2021/12/17 06:26:11;;;;;;;6.57;4.78;;;;;;;9.41;84.06;103327.56;5125113;28;20127;-85
2021/12/17 06:28:42;;;;;;;4.13;3.75;;;;;;;9.27;84.42;103325.53;5099824;29;20046;-84
2021/12/17 06:31:12;;;;;;;5.28;4.18;;;;;;;9.31;84.13;103326.50;5123176;28;20635;-83
2021/12/17 06:33:43;;;;;;;3.60;3.30;;;;;;;9.37;84.49;103331.88;5128162;29;20047;-83
2021/12/17 06:36:13;;;;;;;4.53;4.13;;;;;;;9.49;83.72;103326.00;5129780;28;20038;-84
2021/12/17 06:38:44;;;;;;;3.75;3.45;;;;;;;9.47;83.37;103324.16;5117200;28;20090;-83
2021/12/17 06:41:15;;;;;;;3.97;3.28;;;;;;;9.44;83.48;103333.75;5117068;29;20420;-85
2021/12/17 06:43:45;;;;;;;2.60;2.40;;;;;;;9.47;83.36;103337.25;5119811;28;20094;-83
2021/12/17 06:48:48;;;;;;;4.45;2.53;;;;;;;9.38;83.63;103328.38;5114544;28;20069;-85
2021/12/17 06:59:41;;;;;;;3.53;3.33;;;;;;;9.39;83.58;103335.38;5121585;28;20054;-84
2021/12/17 07:32:20;;;;;;;5.18;3.15;;;;;;;9.42;83.32;103338.06;5136889;28;20035;-88
2021/12/17 07:40:11;;;;;;;6.03;4.00;;;;;;;9.42;83.38;103334.59;5120638;28;20044;-84
2021/12/17 07:42:42;;;;;;;4.78;4.40;;;;;;;9.57;82.83;103336.59;5122305;28;20455;-84
2021/12/17 07:45:12;;;;;;;4.57;2.33;;;;;;;9.49;83.04;103341.72;5122631;28;20039;-84
2021/12/17 07:47:43;;;;;;;4.50;4.05;;;;;;;9.45;82.96;103355.59;5108142;29;20035;-84
2021/12/17 07:50:13;;;;;;;2.53;2.33;;;;;;;9.43;83.23;103350.31;5104294;29;20050;-84
2021/12/17 07:52:44;;;;;;;3.45;3.20;;;;;;;9.38;83.65;103353.72;5122182;29;20134;-83
2021/12/17 07:55:14;;;;;;;3.80;3.38;;;;;;;9.43;83.29;103347.72;5120250;28;20035;-82
2021/12/17 07:57:45;;;;;;;11.40;4.82;;;;;;;9.44;83.24;103348.56;5104736;29;20085;-82
2021/12/17 08:00:16;;;;;;;4.03;2.95;;;;;;;9.49;82.52;103348.66;5103149;29;20239;-83
2021/12/17 08:02:46;;;;;;;4.25;3.45;;;;;;;9.42;83.40;103345.94;5121176;28;20313;-82
2021/12/17 08:05:18;;;;;;;7.25;5.10;;;;;;;9.39;83.47;103348.50;5119713;28;20032;-82
2021/12/17 08:07:49;;;;;;;3.75;3.38;;;;;;;9.44;83.52;103348.56;5088866;29;20043;-83
2021/12/17 08:10:19;;;;;;;3.53;3.25;;;;;;;9.41;83.52;103349.41;5085742;28;20063;-83
2021/12/17 08:12:54;;;;;;;5.68;3.53;;;;;;;9.29;84.22;103352.66;5104264;29;20575;-82
2021/12/17 08:15:32;;;;;;;5.53;3.90;;;;;;;9.40;83.75;103355.50;5103316;28;20509;-83
2021/12/17 08:26:23;;;;;;;3.30;3.00;;;;;;;9.34;83.59;103373.72;5125577;28;20035;-83
2021/12/17 08:29:12;;;;;;;3.05;2.85;;;;;;;9.39;83.38;103377.31;5104555;28;20036;-82
2021/12/17 08:31:42;;;;;;;3.08;2.88;;;;;;;9.37;83.33;103378.13;5104143;29;20082;-82
2021/12/17 08:34:12;;;;;;;5.00;2.65;;;;;;;9.43;83.28;103373.00;5118457;28;20546;-83
2021/12/17 08:36:43;;;;;;;5.35;4.63;;;;;;;9.40;83.11;103373.84;5104642;29;20023;-83
2021/12/17 08:39:14;;;;;;;4.15;3.55;;;;;;;9.41;83.39;103378.22;5091108;28;20050;-83
2021/12/17 08:41:49;;;;;;;3.47;3.20;;;;;;;9.37;83.19;103378.13;5113950;29;20681;-83
2021/12/17 08:44:21;;;;;;;4.75;3.30;;;;;;;9.28;84.05;103377.09;5088330;29;20067;-83
2021/12/17 08:46:51;;;;;;;4.80;4.30;;;;;;;9.33;83.81;103376.31;5105875;28;20038;-82
2021/12/17 08:49:22;;;;;;;1.65;1.58;;;;;;;9.26;83.77;103383.16;5104374;29;20070;-83
2021/12/17 08:51:52;;;;;;;4.07;3.05;;;;;;;9.29;83.70;103384.09;5105736;29;20531;-83
2021/12/17 08:54:23;;;;;;;2.03;1.88;;;;;;;9.37;83.46;103381.66;5105316;29;20035;-82
2021/12/17 08:56:53;;;;;;;2.47;1.90;;;;;;;9.16;84.63;103394.28;5103968;29;20035;-83
2021/12/17 08:59:24;;;;;;;5.72;4.70;;;;;;;9.23;84.20;103402.31;5103411;29;20042;-83
2021/12/17 09:01:55;;;;;;;6.57;3.90;;;;;;;9.24;83.87;103408.44;5120714;29;20031;-83
2021/12/17 09:04:27;;;;;;;4.03;3.65;;;;;;;9.10;84.60;103406.41;5118043;28;20545;-83
2021/12/17 09:06:58;;;;;;;2.30;2.20;;;;;;;9.03;85.39;103411.47;5121240;29;20038;-82
2021/12/17 09:09:28;;;;;;;2.30;2.10;;;;;;;8.99;85.37;103413.13;5119958;28;20039;-82
2021/12/17 09:11:59;;;;;;;4.47;4.07;;;;;;;9.09;84.84;103406.38;5104738;29;20027;-82
2021/12/17 09:14:29;;;;;;;3.45;3.15;;;;;;;9.13;84.47;103411.69;5122385;28;20059;-82
2021/12/17 09:17:00;;;;;;;2.88;2.67;;;;;;;9.05;84.70;103407.16;5109206;29;20433;-82
2021/12/17 09:19:32;;;;;;;1.85;1.75;;;;;;;9.08;84.92;103413.34;5119562;28;20093;-82
2021/12/17 09:22:03;;;;;;;2.20;2.10;;;;;;;9.03;85.17;103412.38;5121974;29;20244;-81
2021/12/17 09:24:33;;;;;;;2.97;2.55;;;;;;;9.14;84.46;103415.22;5121645;28;20122;-81
2021/12/17 09:27:04;;;;;;;4.82;4.40;;;;;;;8.96;85.07;103410.47;5121037;28;20393;-82
2021/12/17 09:29:34;;;;;;;6.80;5.03;;;;;;;8.85;86.60;103409.31;5117541;28;20133;-83
2021/12/17 09:32:05;;;;;;;3.60;3.30;;;;;;;9.07;84.57;103406.31;5123006;28;20043;-83
2021/12/17 09:34:36;;;;;;;9.50;3.30;;;;;;;9.07;84.34;103415.94;5101365;29;20042;-82
2021/12/17 09:37:07;;;;;;;2.72;2.20;;;;;;;9.12;84.39;103417.81;5120328;29;20020;-82
2021/12/17 09:39:37;;;;;;;7.65;4.85;;;;;;;9.16;84.42;103415.25;5102438;28;20047;-82
2021/12/17 09:42:08;;;;;;;2.75;2.42;;;;;;;9.11;83.96;103413.41;5118616;29;20147;-82
2021/12/17 09:44:39;;;;;;;9.13;4.18;;;;;;;9.16;84.02;103425.72;5121831;28;20089;-82
2021/12/17 09:47:10;;;;;;;4.43;3.55;;;;;;;9.12;84.11;103422.16;5104460;29;20110;-82
2021/12/17 09:49:40;;;;;;;7.72;3.13;;;;;;;9.10;84.52;103422.13;5113124;29;20130;-82
2021/12/17 09:52:11;;;;;;;22.35;4.10;;;;;;;9.18;84.19;103424.03;5118514;29;20031;-83
2021/12/17 09:54:42;;;;;;;4.40;4.00;;;;;;;9.07;84.19;103429.03;5109413;29;20043;-82
2021/12/17 09:57:12;;;;;;;9.63;4.97;;;;;;;9.18;84.03;103419.66;5120935;29;20027;-82
2021/12/17 09:59:43;;;;;;;3.47;2.88;;;;;;;9.17;84.23;103423.16;5104016;28;20047;-82
2021/12/17 10:02:14;;;;;;;4.05;3.63;;;;;;;9.20;84.32;103430.19;5125113;28;20035;-82
2021/12/17 10:04:45;;;;;;;6.43;5.25;;;;;;;9.11;84.36;103430.84;5126455;28;20432;-82
2021/12/17 10:07:30;;;;;;;4.25;3.25;;;;;;;9.10;84.87;103432.59;5122173;28;20031;-82
2021/12/17 10:10:05;;;;;;;6.32;3.10;;;;;;;9.07;84.58;103436.88;5102487;29;20125;-82
2021/12/17 10:12:38;;;;;;;12.82;3.83;;;;;;;9.14;84.94;103437.03;5105841;29;20102;-82
2021/12/17 10:15:15;;;;;;;5.78;4.32;;;;;;;9.21;83.75;103435.44;5104733;29;20043;-82
2021/12/17 10:17:58;;;;;;;12.15;5.57;;;;;;;9.14;84.69;103442.28;5120901;29;20039;-83
2021/12/17 10:20:54;;;;;;;3.58;3.30;;;;;;;9.21;84.04;103434.59;5103164;29;20585;-82
2021/12/17 10:23:26;;;;;;;1.92;1.77;;;;;;;9.21;84.38;103429.34;5104072;29;20047;-82
2021/12/17 10:25:57;;;;;;;12.68;4.03;;;;;;;9.31;84.00;103428.66;5103571;28;20299;-82
2021/12/17 10:28:30;;;;;;;3.50;3.15;;;;;;;9.29;83.76;103425.16;5102141;29;20027;-82
2021/12/17 10:31:00;;;;;;;5.35;4.35;;;;;;;9.23;84.20;103423.28;5086605;29;20042;-83
2021/12/17 10:33:32;;;;;;;4.25;3.03;;;;;;;9.30;83.90;103416.41;5105112;29;20091;-82
2021/12/17 10:36:04;;;;;;;4.68;4.28;;;;;;;9.31;84.25;103423.44;5102877;29;20733;-82
2021/12/17 10:38:34;;;;;;;4.40;3.95;;;;;;;9.31;84.24;103426.06;5102139;29;20035;-82
2021/12/17 10:41:09;;;;;;;2.15;2.05;;;;;;;9.32;84.13;103426.94;5128642;28;20050;-82
2021/12/17 10:43:48;;;;;;;4.53;3.88;;;;;;;9.30;84.14;103424.28;5118472;28;20039;-82
2021/12/17 10:46:31;;;;;;;2.97;2.08;;;;;;;9.27;84.26;103421.63;5123031;28;20042;-83
2021/12/17 10:54:18;;;;;;;3.53;3.15;;;;;;;9.34;84.31;103415.66;5151380;23;20047;-77
2021/12/17 10:56:52;;;;;;;2.72;2.50;;;;;;;9.27;84.35;103413.75;5126483;28;20027;-76
2021/12/17 10:59:30;;;;;;;2.80;2.58;;;;;;;9.31;84.29;103415.56;5123880;28;20107;-77
2021/12/17 11:02:11;;;;;;;2.75;2.35;;;;;;;9.31;84.10;103415.56;5143802;28;20027;-77
2021/12/17 11:04:46;;;;;;;3.28;2.88;;;;;;;9.40;84.48;103423.63;5120486;28;20070;-76
2021/12/17 11:07:19;;;;;;;2.20;2.10;;;;;;;9.35;84.86;103425.28;5107165;29;20699;-77
2021/12/17 11:09:55;;;;;;;5.82;5.18;;;;;;;9.27;84.47;103412.00;5120136;28;20182;-79
2021/12/17 11:12:35;;;;;;;3.78;3.47;;;;;;;9.34;84.38;103412.16;5104670;29;20409;-76
2021/12/17 11:15:11;;;;;;;6.35;3.60;;;;;;;9.41;84.05;103417.53;5122655;28;20039;-76
2021/12/17 11:17:50;;;;;;;3.33;3.08;;;;;;;9.45;83.80;103410.63;5127272;28;20038;-76
2021/12/17 11:20:32;;;;;;;8.07;3.53;;;;;;;9.41;84.32;103408.81;5109246;28;20039;-77
2021/12/17 11:23:08;;;;;;;5.47;4.70;;;;;;;9.43;84.06;103407.97;5107727;29;20704;-77
2021/12/17 11:25:44;;;;;;;5.03;4.55;;;;;;;9.38;84.07;103406.97;5115305;28;20521;-77
2021/12/17 11:28:16;;;;;;;3.70;3.13;;;;;;;9.30;84.81;103400.69;5101540;29;20146;-77
2021/12/17 11:30:55;;;;;;;3.65;3.38;;;;;;;9.39;84.19;103403.50;5119580;28;20110;-77
2021/12/17 11:33:26;;;;;;;9.50;6.18;;;;;;;9.43;84.02;103399.22;5115185;29;20028;-77
2021/12/17 11:35:56;;;;;;;3.05;2.85;;;;;;;9.38;84.36;103409.59;5108756;28;20799;-77
2021/12/17 11:39:04;;;;;;;4.70;4.30;;;;;;;9.44;83.74;103401.91;5111921;29;20039;-76
2021/12/17 11:41:55;;;;;;;3.60;3.30;;;;;;;9.38;84.02;103404.38;5106671;29;20047;-77
2021/12/17 11:44:39;;;;;;;3.22;2.58;;;;;;;9.22;86.23;103413.66;5131067;28;20040;-76
2021/12/17 11:47:15;;;;;;;6.72;4.65;;;;;;;9.43;84.43;103414.94;5114502;28;20054;-77
2021/12/17 11:49:52;;;;;;;5.85;2.63;;;;;;;9.20;85.02;103407.47;5122408;28;20039;-77
2021/12/17 11:52:35;;;;;;;3.30;3.10;;;;;;;9.27;84.81;103408.50;5114231;29;20027;-76
2021/12/17 11:55:27;;;;;;;4.53;3.83;;;;;;;9.35;84.88;103399.06;5126232;28;20121;-76
2021/12/17 11:58:01;;;;;;;8.30;4.22;;;;;;;9.29;84.65;103404.19;5125350;28;20512;-77
2021/12/17 12:00:54;;;;;;;4.65;3.08;;;;;;;9.34;84.55;103405.16;5130664;28;20390;-76
2021/12/17 12:03:24;;;;;;;5.15;4.13;;;;;;;9.26;84.64;103407.59;5112095;28;20458;-77
2021/12/17 12:05:58;;;;;;;4.32;3.92;;;;;;;9.38;84.27;103412.22;5088542;28;20039;-78
2021/12/17 12:08:47;;;;;;;;;;;;;;;9.27;84.38;103400.66;5128973;28;20800;-78
2021/12/17 12:11:27;;;;;;;4.18;3.05;;;;;;;9.40;84.79;103399.19;5107128;29;19922;-78
2021/12/17 12:14:26;;;;;;;10.05;6.32;;;;;;;9.33;84.93;103403.41;5118585;28;20117;-78
2021/12/17 12:16:57;;;;;;;5.70;3.45;;;;;;;9.22;85.44;103405.78;5105485;29;20174;-78
2021/12/17 12:19:48;;;;;;;2.67;2.47;;;;;;;9.25;85.24;103404.97;5113026;28;20114;-78
2021/12/17 12:22:30;;;;;;;4.07;3.75;;;;;;;9.26;85.11;103402.38;5132985;28;20046;-77
2021/12/17 12:25:30;;;;;;;37.97;4.43;;;;;;;9.23;85.04;103401.41;5099561;28;20039;-77
2021/12/17 12:28:04;;;;;;;5.30;4.65;;;;;;;9.15;86.11;103396.03;5102139;29;20042;-77
2021/12/17 12:30:37;;;;;;;7.07;4.70;;;;;;;9.17;85.67;103396.06;5110095;28;20055;-79
2021/12/17 12:33:09;;;;;;;;;;;;;;;9.17;85.55;103403.91;5132289;28;20500;-79
2021/12/17 12:35:55;;;;;;;5.10;4.40;;;;;;;9.24;85.43;103395.34;5122354;28;19958;-78
2021/12/17 12:38:32;;;;;;;3.78;3.42;;;;;;;9.25;84.80;103391.88;5130488;28;20126;-77
2021/12/17 12:41:07;;;;;;;3.67;3.40;;;;;;;9.24;85.01;103387.47;5128184;28;20134;-77
2021/12/17 12:43:46;;;;;;;3.45;3.15;;;;;;;9.36;84.94;103398.22;5108022;29;20048;-77
2021/12/17 12:46:57;;;;;;;7.50;4.32;;;;;;;9.21;85.73;103387.44;5107750;29;20054;-77
2021/12/17 12:49:49;;;;;;;2.78;2.60;;;;;;;9.24;85.60;103387.47;5106331;29;20047;-75
2021/12/17 12:52:26;;;;;;;3.88;3.58;;;;;;;9.37;84.72;103389.53;5120464;28;20164;-76
2021/12/17 12:55:21;;;;;;;2.55;2.15;;;;;;;9.31;85.90;103383.25;5125860;28;20046;-76
2021/12/17 12:57:58;;;;;;;2.60;2.45;;;;;;;9.27;85.72;103385.81;5124022;28;20086;-76
2021/12/17 13:00:29;;;;;;;2.15;2.05;;;;;;;9.24;85.06;103387.47;5125825;28;20047;-77
2021/12/17 13:03:25;;;;;;;5.32;4.93;;;;;;;9.28;85.31;103379.72;5117992;29;20031;-76
2021/12/17 13:05:57;;;;;;;7.72;3.72;;;;;;;9.20;85.51;103380.41;5122910;28;20047;-77
2021/12/17 13:08:33;;;;;;;2.80;2.63;;;;;;;9.19;85.95;103376.91;5124852;28;20065;-77
2021/12/17 13:11:18;;;;;;;5.32;4.38;;;;;;;9.17;86.29;103381.25;5126036;28;20114;-76
2021/12/17 13:13:52;;;;;;;3.85;3.53;;;;;;;9.25;85.57;103376.16;5115143;28;20027;-76
2021/12/17 13:24:31;;;;;;;5.15;3.40;;;;;;;9.21;86.00;103382.19;5124300;28;20341;-76
2021/12/17 13:27:09;;;;;;;12.80;5.60;;;;;;;9.18;86.19;103376.88;5130717;28;20051;-77
2021/12/17 13:29:43;;;;;;;11.50;4.13;;;;;;;9.12;86.68;103375.00;5105190;29;20043;-76
2021/12/17 13:32:17;;;;;;;4.68;3.33;;;;;;;9.14;86.38;103383.78;5114905;29;20035;-76
2021/12/17 13:34:49;;;;;;;;;;;;;;;9.06;87.68;103378.38;5126624;28;20122;-76
2021/12/17 13:37:30;;;;;;;22.08;4.22;;;;;;;9.08;86.95;103376.66;5100037;29;20277;-77
2021/12/17 13:40:09;;;;;;;3.40;3.10;;;;;;;9.25;86.39;103373.53;5110483;28;20055;-77
2021/12/17 13:42:46;;;;;;;3.05;2.85;;;;;;;9.21;86.28;103366.47;5123738;28;20444;-77
2021/12/17 13:45:19;;;;;;;3.13;2.92;;;;;;;9.18;86.04;103366.41;5099999;28;20283;-77
2021/12/17 13:47:54;;;;;;;4.35;3.70;;;;;;;9.25;86.04;103369.19;5105523;29;20038;-76
2021/12/17 13:50:50;;;;;;;3.88;3.63;;;;;;;9.25;85.46;103360.44;5114501;28;20489;-79
2021/12/17 13:53:21;;;;;;;3.78;3.42;;;;;;;9.25;85.87;103357.81;5094708;29;20032;-78
2021/12/17 13:58:45;;;;;;;3.20;3.00;;;;;;;9.29;85.39;103346.56;5111963;28;20047;-77
2021/12/17 14:01:22;;;;;;;3.15;2.92;;;;;;;9.32;85.57;103350.97;5129312;28;20050;-79
2021/12/17 14:03:53;;;;;;;3.08;2.72;;;;;;;9.38;85.11;103343.22;5121414;28;20023;-78
2021/12/17 14:06:28;;;;;;;4.07;3.70;;;;;;;9.18;86.40;103341.06;5106881;29;20593;-79
2021/12/17 14:08:58;;;;;;;3.90;2.38;;;;;;;9.30;85.23;103345.69;5116535;28;20023;-78
2021/12/17 14:11:32;;;;;;;11.45;3.47;;;;;;;9.33;85.87;103353.59;5139615;28;20054;-78
2021/12/17 14:14:03;;;;;;;6.47;3.28;;;;;;;9.36;85.67;103350.16;5112254;28;20036;-78
2021/12/17 14:16:34;;;;;;;1.98;1.88;;;;;;;9.35;85.62;103359.78;5126125;28;20182;-78
2021/12/17 14:19:04;;;;;;;2.53;2.35;;;;;;;9.30;85.88;103356.16;5107206;28;20038;-78
2021/12/17 14:21:36;;;;;;;2.88;2.65;;;;;;;9.48;85.17;103360.91;5122076;28;20039;-78
2021/12/17 14:24:27;;;;;;;3.30;3.08;;;;;;;9.44;85.28;103365.19;5107529;28;20044;-80
2021/12/17 14:26:57;;;;;;;3.35;3.15;;;;;;;9.31;86.16;103359.69;5122567;29;20077;-79
2021/12/17 14:29:29;;;;;;;5.88;3.03;;;;;;;9.38;86.17;103362.44;5104071;28;20513;-77
2021/12/17 14:32:02;;;;;;;4.28;3.88;;;;;;;9.37;85.18;103354.56;5091909;29;20038;-78
2021/12/17 14:34:44;;;;;;;2.00;1.90;;;;;;;9.40;85.47;103347.63;5100538;28;20114;-77
2021/12/17 14:37:15;;;;;;;3.72;3.45;;;;;;;9.40;85.15;103350.25;5106649;29;20023;-78
2021/12/17 14:39:47;;;;;;;2.55;2.38;;;;;;;9.32;85.46;103354.47;5106382;28;20056;-80
2021/12/17 14:42:30;;;;;;;6.50;3.33;;;;;;;9.26;86.41;103365.69;5107758;28;20143;-79
2021/12/17 14:45:09;;;;;;;6.68;2.92;;;;;;;9.36;86.31;103364.16;5097469;29;20039;-79
2021/12/17 14:47:52;;;;;;;1.80;1.70;;;;;;;9.31;85.97;103363.16;5099635;28;20046;-78
2021/12/17 15:00:14;;;;;;;6.40;3.80;;;;;;;9.44;85.26;103375.69;5113524;28;20085;-78
2021/12/17 15:02:11;;;;;;;5.50;3.90;;;;;;;9.51;85.15;103370.56;5118763;28;20035;-78
2021/12/17 15:04:45;;;;;;;3.53;3.03;;;;;;;9.47;84.92;103371.34;5109397;28;20146;-78
2021/12/17 15:07:18;;;;;;;1.63;1.52;;;;;;;9.41;85.22;103375.63;5104815;28;20024;-78
2021/12/17 15:09:49;;;;;;;1.13;1.13;;;;;;;9.40;85.36;103372.97;5119019;28;20036;-78
2021/12/17 15:15:16;;;;;;;2.40;2.25;;;;;;;9.27;85.08;103370.09;5110875;28;20040;-79
2021/12/17 15:17:52;;;;;;;1.85;1.75;;;;;;;9.41;84.85;103370.38;5124419;28;20035;-78
2021/12/17 15:20:28;;;;;;;3.05;2.80;;;;;;;9.38;84.89;103372.03;5106035;28;20051;-78
2021/12/17 15:23:05;;;;;;;;;;;;;;;9.32;84.87;103370.19;5116175;29;20038;-77
2021/12/17 15:25:38;;;;;;;1.85;1.70;;;;;;;9.29;84.74;103378.88;5107371;28;19918;-78
2021/12/17 15:28:11;;;;;;;;;;;;;;;9.26;85.03;103377.91;5125800;28;20087;-77
2021/12/17 15:30:44;;;;;;;0.98;0.98;;;;;;;9.26;85.09;103368.31;5128289;28;19918;-78
2021/12/17 15:33:15;;;;;;;1.67;1.58;;;;;;;9.18;84.85;103361.16;5113484;29;20035;-79
2021/12/17 15:35:49;;;;;;;2.20;2.10;;;;;;;9.29;84.45;103365.75;5085252;29;20031;-78